Météo Nord-Pas-de-Calais   La météo au plus près de chez vous

Station météorologique

Observations météo à Embrun (05046)

05046001 873 m Dernier relevé à 22:24
21.4°C
Humidité 45 % Vent 2.5 km/h

Journée consultée

Samedi 5 Septembre 2026

Synthèse de la journée

Périodes de référence en UTC

Température maximale

31.3°C

à 16:00

06h 06h

Température minimale

14.6°C

à 07:12

18h 18h

Rafale maximale

33 km/h

à 16:24

00h 00h

Précipitations

0 mm

Cumul quotidien

06h 06h

Ensoleillement

10h 1 mins

Durée quotidienne

00h 00h

Graphiques de la journée

Heure locale Réduire

Données détaillées

Relevés météo

Pas de 6 minutes Afficher les relevés infra-horaires
Relevés météo détaillés à Embrun pour le Samedi 5 Septembre 2026
Heure Température °C Point de rosée °C Humidité % Vent moyen (raf.), km/h Précipitations mm Température à 10 cm °C Température à 20 cm °C Température à 50 cm °C Température à 100 cm °C Hauteur neige cm Ensoleillement min Rayonnement global W/m²
22:24 21.4 °C 9.6 °C 47 % 3 km/h (7 km/h) 0 mm0 mm 23.8 °C 22.7 °C 20.2 °C 19.4 °C 0 cm 0 min 0 W/m²
22:18 21.5 °C 9.7 °C 47 % 3 km/h (7 km/h) 0 mm0 mm 23.9 °C 22.7 °C 20.2 °C 19.4 °C 0 cm 0 min 0 W/m²
22:12 22 °C 9.5 °C 45 % 2 km/h (7 km/h) 0 mm0 mm 23.9 °C 22.7 °C 20.1 °C 19.4 °C 0 cm 0 min 0 W/m²
22:06 22 °C 9.5 °C 45 % 3 km/h (7 km/h) 0 mm0 mm 24 °C 22.7 °C 20.1 °C 19.4 °C 0 cm 0 min 0 W/m²
22:00 22.2 °C 9.4 °C 44 % 2 km/h (7 km/h) 0 mm0 mm 24 °C 22.7 °C 20.1 °C 19.4 °C 0 cm 0 min 0 W/m²
21:54 22.1 °C 9.6 °C 45 % 3 km/h (5 km/h) 0 mm0 mm 24 °C 22.6 °C 20.1 °C 19.4 °C 0 cm 0 min 0 W/m²
21:48 22.1 °C 9.9 °C 46 % 3 km/h (6 km/h) 0 mm0 mm 24 °C 22.6 °C 20.1 °C 19.4 °C 0 cm 0 min 0 W/m²
21:42 22.2 °C 9.4 °C 44 % 2 km/h (6 km/h) 0 mm0 mm 24.1 °C 22.6 °C 20.1 °C 19.4 °C 0 cm 0 min 0 W/m²
21:36 22.2 °C 9.7 °C 45 % 3 km/h (6 km/h) 0 mm0 mm 24.1 °C 22.6 °C 20.1 °C 19.4 °C 0 cm 0 min 0 W/m²
21:30 22.4 °C 9.5 °C 44 % 3 km/h (6 km/h) 0 mm0 mm 24.1 °C 22.6 °C 20.1 °C 19.4 °C 0 cm 0 min 0 W/m²
21:24 22.4 °C 9.9 °C 45 % 3 km/h (5 km/h) 0 mm0 mm 24.2 °C 22.6 °C 20.1 °C 19.4 °C 0 cm 0 min 0 W/m²
21:18 22.7 °C 10.2 °C 45 % 2 km/h (4 km/h) 0 mm0 mm 24.2 °C 22.6 °C 20.1 °C 19.4 °C 0 cm 0 min 0 W/m²
21:12 23 °C 10.1 °C 44 % 0 km/h (6 km/h) 0 mm0 mm 24.2 °C 22.6 °C 20.1 °C 19.4 °C 0 cm 0 min 0 W/m²
21:06 23.3 °C 10 °C 43 % 3 km/h (11 km/h) 0 mm0 mm 24.2 °C 22.6 °C 20.1 °C 19.4 °C 0 cm 0 min 0 W/m²
21:00 23 °C 9.7 °C 43 % 3 km/h (8 km/h) 0 mm0 mm 24.2 °C 22.5 °C 20.1 °C 19.4 °C 0 cm 0 min 0 W/m²
20:54 23 °C 10.4 °C 45 % 2 km/h (5 km/h) 0 mm0 mm 24.3 °C 22.5 °C 20.1 °C 19.4 °C 0 cm 0 min 0 W/m²
20:48 23.3 °C 10.4 °C 44 % 4 km/h (10 km/h) 0 mm0 mm 24.3 °C 22.5 °C 20.1 °C 19.4 °C 0 cm 0 min 0 W/m²
20:42 23.3 °C 10.4 °C 44 % 4 km/h (10 km/h) 0 mm0 mm 24.3 °C 22.5 °C 20.1 °C 19.4 °C 0 cm 0 min 0 W/m²
20:36 23.8 °C 10.1 °C 42 % 3 km/h (7 km/h) 0 mm0 mm 24.3 °C 22.5 °C 20.1 °C 19.4 °C 0 cm 0 min 0 W/m²
20:30 24 °C 10.3 °C 42 % 3 km/h (6 km/h) 0 mm0 mm 24.3 °C 22.5 °C 20.1 °C 19.4 °C 0 cm 0 min 0 W/m²
20:24 24.5 °C 10 °C 40 % 3 km/h (8 km/h) 0 mm0 mm 24.3 °C 22.4 °C 20.1 °C 19.4 °C 0 cm 0 min 0 W/m²
20:18 24.7 °C 10.2 °C 40 % 4 km/h (8 km/h) 0 mm0 mm 24.3 °C 22.4 °C 20.1 °C 19.4 °C 0 cm 0 min 0 W/m²
20:12 24.9 °C 10.4 °C 40 % 4 km/h (8 km/h) 0 mm0 mm 24.3 °C 22.4 °C 20.1 °C 19.4 °C 0 cm 0 min 0 W/m²
20:06 25 °C 10.5 °C 40 % 4 km/h (6 km/h) 0 mm0 mm 24.4 °C 22.4 °C 20.1 °C 19.4 °C 0 cm 0 min 0 W/m²
20:00 25.6 °C 9.8 °C 37 % 4 km/h (8 km/h) 0 mm0 mm 24.4 °C 22.4 °C 20.1 °C 19.4 °C 0 cm 0 min 0 W/m²
19:54 26.1 °C 9.4 °C 35 % 3 km/h (8 km/h) 0 mm0 mm 24.4 °C 22.3 °C 20.1 °C 19.4 °C 0 cm 0 min 0 W/m²
19:48 26.4 °C 10.1 °C 36 % 4 km/h (8 km/h) 0 mm0 mm 24.4 °C 22.3 °C 20.1 °C 19.4 °C 0 cm 0 min 0 W/m²
19:42 27 °C 9.8 °C 34 % 5 km/h (9 km/h) 0 mm0 mm 24.4 °C 22.3 °C 20.1 °C 19.4 °C 0 cm 0 min 0.1 W/m²
19:36 27.4 °C 8.8 °C 31 % 6 km/h (12 km/h) 0 mm0 mm 24.4 °C 22.2 °C 20.1 °C 19.4 °C 0 cm 0 min 4.3 W/m²
19:30 27.5 °C 9.8 °C 33 % 8 km/h (13 km/h) 0 mm0 mm 24.3 °C 22.2 °C 20.1 °C 19.4 °C 0 cm 0 min 5.7 W/m²
19:24 27.8 °C 9.1 °C 31 % 5 km/h (13 km/h) 0 mm0 mm 24.3 °C 22.2 °C 20.1 °C 19.4 °C 0 cm 0 min 7 W/m²
19:18 28.3 °C 9.6 °C 31 % 3 km/h (8 km/h) 0 mm0 mm 24.3 °C 22.2 °C 20.1 °C 19.4 °C 0 cm 0 min 8.2 W/m²
19:12 29.1 °C 9.2 °C 29 % 4 km/h (10 km/h) 0 mm0 mm 24.3 °C 22.2 °C 20.1 °C 19.4 °C 0 cm 3 min 24.6 W/m²
19:06 29.5 °C 9.1 °C 28 % 6 km/h (19 km/h) 0 mm0 mm 24.3 °C 22.1 °C 20.1 °C 19.4 °C 0 cm 6 min 44 W/m²
19:00 29.5 °C 8.5 °C 27 % 9 km/h (19 km/h) 0 mm0 mm 24.3 °C 22.1 °C 20.1 °C 19.4 °C 0 cm 6 min 49.7 W/m²
18:54 29.6 °C 8.6 °C 27 % 10 km/h (21 km/h) 0 mm0 mm 24.3 °C 22.1 °C 20.1 °C 19.4 °C 0 cm 6 min 55.1 W/m²
18:48 29.8 °C 8.8 °C 27 % 11 km/h (21 km/h) 0 mm0 mm 24.3 °C 22 °C 20.1 °C 19.4 °C 0 cm 6 min 60 W/m²
18:42 29.9 °C 8.3 °C 26 % 10 km/h (21 km/h) 0 mm0 mm 24.2 °C 22 °C 20.1 °C 19.4 °C 0 cm 6 min 65 W/m²
18:36 30.2 °C 8.6 °C 26 % 9 km/h (18 km/h) 0 mm0 mm 24.2 °C 22 °C 20.1 °C 19.4 °C 0 cm 6 min 70.7 W/m²
18:30 30.3 °C 8.7 °C 26 % 9 km/h (17 km/h) 0 mm0 mm 24.2 °C 21.9 °C 20.1 °C 19.4 °C 0 cm 6 min 76.9 W/m²
18:24 30.4 °C 8.7 °C 26 % 10 km/h (23 km/h) 0 mm0 mm 24.2 °C 21.9 °C 20.1 °C 19.4 °C 0 cm 6 min 82.6 W/m²
18:18 30.6 °C 8.3 °C 25 % 9 km/h (19 km/h) 0 mm0 mm 24.1 °C 21.9 °C 20.1 °C 19.4 °C 0 cm 6 min 89.5 W/m²
18:12 30.9 °C 8.6 °C 25 % 9 km/h (25 km/h) 0 mm0 mm 24.1 °C 21.9 °C 20.1 °C 19.4 °C 0 cm 6 min 96 W/m²
18:06 30.8 °C 8.5 °C 25 % 11 km/h (25 km/h) 0 mm0 mm 24.1 °C 21.8 °C 20.1 °C 19.4 °C 0 cm 6 min 103.1 W/m²
18:00 30.9 °C 8.6 °C 25 % 10 km/h (21 km/h) 0 mm0 mm 24 °C 21.8 °C 20.1 °C 19.4 °C 0 cm 6 min 109.6 W/m²
17:54 30.8 °C 9.1 °C 26 % 13 km/h (24 km/h) 0 mm0 mm 24 °C 21.7 °C 20.1 °C 19.4 °C 0 cm 6 min 115.5 W/m²
17:48 30.8 °C 8.5 °C 25 % 13 km/h (24 km/h) 0 mm0 mm 24 °C 21.7 °C 20.1 °C 19.4 °C 0 cm 6 min 120.7 W/m²
17:42 30.8 °C 8.5 °C 25 % 14 km/h (30 km/h) 0 mm0 mm 23.9 °C 21.7 °C 20.1 °C 19.4 °C 0 cm 6 min 125.3 W/m²
17:36 30.8 °C 8.5 °C 25 % 15 km/h (30 km/h) 0 mm0 mm 23.9 °C 21.6 °C 20.1 °C 19.4 °C 0 cm 6 min 132.7 W/m²
17:30 31 °C 8.7 °C 25 % 13 km/h (28 km/h) 0 mm0 mm 23.8 °C 21.6 °C 20.1 °C 19.4 °C 0 cm 6 min 138.7 W/m²
17:24 31 °C 8.7 °C 25 % 14 km/h (24 km/h) 0 mm0 mm 23.8 °C 21.6 °C 20.1 °C 19.4 °C 0 cm 6 min 144.2 W/m²
17:18 31.1 °C 8.7 °C 25 % 14 km/h (24 km/h) 0 mm0 mm 23.7 °C 21.5 °C 20.1 °C 19.4 °C 0 cm 6 min 149.8 W/m²
17:12 31.2 °C 9.4 °C 26 % 13 km/h (24 km/h) 0 mm0 mm 23.7 °C 21.5 °C 20.1 °C 19.4 °C 0 cm 6 min 154.9 W/m²
17:06 31 °C 9.2 °C 26 % 13 km/h (23 km/h) 0 mm0 mm 23.6 °C 21.5 °C 20.1 °C 19.4 °C 0 cm 6 min 157.2 W/m²
17:00 31.1 °C 8.7 °C 25 % 13 km/h (23 km/h) 0 mm0 mm 23.5 °C 21.4 °C 20.1 °C 19.4 °C 0 cm 6 min 163.3 W/m²
16:54 31 °C 8.7 °C 25 % 14 km/h (23 km/h) 0 mm0 mm 23.5 °C 21.4 °C 20.1 °C 19.4 °C 0 cm 6 min 167.6 W/m²
16:48 31 °C 8.7 °C 25 % 15 km/h (28 km/h) 0 mm0 mm 23.4 °C 21.3 °C 20.1 °C 19.4 °C 0 cm 6 min 177.8 W/m²
16:42 30.9 °C 8.6 °C 25 % 14 km/h (28 km/h) 0 mm0 mm 23.3 °C 21.3 °C 20.1 °C 19.4 °C 0 cm 6 min 173.1 W/m²
16:36 30.7 °C 8.4 °C 25 % 15 km/h (26 km/h) 0 mm0 mm 23.3 °C 21.3 °C 20.1 °C 19.4 °C 0 cm 6 min 169.3 W/m²
16:30 30.6 °C 8.3 °C 25 % 18 km/h (33 km/h) 0 mm0 mm 23.2 °C 21.2 °C 20.1 °C 19.4 °C 0 cm 6 min 169 W/m²
16:24 30.7 °C 8.4 °C 25 % 17 km/h (33 km/h) 0 mm0 mm 23.1 °C 21.2 °C 20.1 °C 19.4 °C 0 cm 6 min 183.3 W/m²
16:18 30.7 °C 9 °C 26 % 15 km/h (27 km/h) 0 mm0 mm 23.1 °C 21.2 °C 20.1 °C 19.4 °C 0 cm 6 min 191.1 W/m²
16:12 30.6 °C 8.3 °C 25 % 17 km/h (26 km/h) 0 mm0 mm 23 °C 21.2 °C 20.1 °C 19.4 °C 0 cm 6 min 195.7 W/m²
16:06 30.7 °C 8.4 °C 25 % 15 km/h (26 km/h) 0 mm0 mm 22.9 °C 21.1 °C 20.1 °C 19.4 °C 0 cm 6 min 202.8 W/m²
16:00 30.8 °C 9.6 °C 27 % 14 km/h (27 km/h) 0 mm0 mm 22.8 °C 21.1 °C 20.1 °C 19.4 °C 0 cm 6 min 207.5 W/m²
15:54 30.7 °C 9 °C 26 % 16 km/h (26 km/h) 0 mm0 mm 22.8 °C 21.1 °C 20.1 °C 19.4 °C 0 cm 6 min 208.4 W/m²
15:48 30.7 °C 9 °C 26 % 17 km/h (30 km/h) 0 mm0 mm 22.7 °C 21 °C 20.1 °C 19.4 °C 0 cm 6 min 214.6 W/m²
15:42 30.7 °C 9.6 °C 27 % 15 km/h (25 km/h) 0 mm0 mm 22.6 °C 21 °C 20.1 °C 19.4 °C 0 cm 6 min 217.8 W/m²
15:36 30.6 °C 10 °C 28 % 17 km/h (26 km/h) 0 mm0 mm 22.5 °C 20.9 °C 20.1 °C 19.4 °C 0 cm 6 min 220.1 W/m²
15:30 30.6 °C 9.5 °C 27 % 18 km/h (31 km/h) 0 mm0 mm 22.4 °C 20.9 °C 20.1 °C 19.4 °C 0 cm 6 min 221.9 W/m²
15:24 30.5 °C 9.4 °C 27 % 18 km/h (28 km/h) 0 mm0 mm 22.4 °C 20.9 °C 20.1 °C 19.4 °C 0 cm 6 min 226.3 W/m²
15:18 30.7 °C 10.1 °C 28 % 15 km/h (28 km/h) 0 mm0 mm 22.3 °C 20.9 °C 20.2 °C 19.4 °C 0 cm 6 min 232.7 W/m²
15:12 30.9 °C 9.2 °C 26 % 14 km/h (26 km/h) 0 mm0 mm 22.2 °C 20.8 °C 20.1 °C 19.4 °C 0 cm 6 min 231.4 W/m²
15:06 31.2 °C 10.5 °C 28 % 12 km/h (26 km/h) 0 mm0 mm 22.1 °C 20.8 °C 20.1 °C 19.4 °C 0 cm 6 min 237.3 W/m²
15:00 31 °C 10.9 °C 29 % 12 km/h (25 km/h) 0 mm0 mm 22.1 °C 20.8 °C 20.1 °C 19.4 °C 0 cm 6 min 240.9 W/m²
14:54 31 °C 10.9 °C 29 % 12 km/h (25 km/h) 0 mm0 mm 22 °C 20.8 °C 20.2 °C 19.4 °C 0 cm 6 min 242.9 W/m²
14:48 30.6 °C 10 °C 28 % 12 km/h (21 km/h) 0 mm0 mm 21.9 °C 20.7 °C 20.2 °C 19.4 °C 0 cm 6 min 244.6 W/m²
14:42 30.5 °C 9.4 °C 27 % 13 km/h (22 km/h) 0 mm0 mm 21.8 °C 20.7 °C 20.1 °C 19.4 °C 0 cm 6 min 243.9 W/m²
14:36 30.3 °C 9.8 °C 28 % 13 km/h (22 km/h) 0 mm0 mm 21.7 °C 20.7 °C 20.2 °C 19.4 °C 0 cm 6 min 246.3 W/m²
14:30 30.3 °C 10.3 °C 29 % 13 km/h (23 km/h) 0 mm0 mm 21.6 °C 20.7 °C 20.2 °C 19.4 °C 0 cm 6 min 247.5 W/m²
14:24 30 °C 9 °C 27 % 13 km/h (23 km/h) 0 mm0 mm 21.6 °C 20.7 °C 20.2 °C 19.4 °C 0 cm 6 min 248.2 W/m²
14:18 29.8 °C 10.8 °C 31 % 15 km/h (23 km/h) 0 mm0 mm 21.5 °C 20.7 °C 20.2 °C 19.4 °C 0 cm 6 min 249 W/m²
14:12 29.5 °C 8 °C 26 % 15 km/h (23 km/h) 0 mm0 mm 21.4 °C 20.6 °C 20.2 °C 19.4 °C 0 cm 6 min 249.8 W/m²
14:06 29.7 °C 9.2 °C 28 % 13 km/h (22 km/h) 0 mm0 mm 21.3 °C 20.6 °C 20.2 °C 19.4 °C 0 cm 6 min 247.5 W/m²
14:00 29.5 °C 8.5 °C 27 % 12 km/h (22 km/h) 0 mm0 mm 21.2 °C 20.6 °C 20.2 °C 19.4 °C 0 cm 6 min 252.8 W/m²
13:54 29.5 °C 11.1 °C 32 % 12 km/h (21 km/h) 0 mm0 mm 21.2 °C 20.6 °C 20.2 °C 19.4 °C 0 cm 6 min 252.9 W/m²
13:48 28.8 °C 10 °C 31 % 12 km/h (21 km/h) 0 mm0 mm 21.1 °C 20.6 °C 20.2 °C 19.4 °C 0 cm 6 min 253 W/m²
13:42 29.6 °C 10.7 °C 31 % 9 km/h (21 km/h) 0 mm0 mm 21 °C 20.6 °C 20.2 °C 19.4 °C 0 cm 6 min 251.1 W/m²
13:36 29.5 °C 12.9 °C 36 % 7 km/h (15 km/h) 0 mm0 mm 20.9 °C 20.6 °C 20.2 °C 19.4 °C 0 cm 6 min 252.5 W/m²
13:30 29.6 °C 12.1 °C 34 % 7 km/h (15 km/h) 0 mm0 mm 20.9 °C 20.6 °C 20.2 °C 19.4 °C 0 cm 6 min 253.4 W/m²
13:24 29.4 °C 13.2 °C 37 % 7 km/h (16 km/h) 0 mm0 mm 20.8 °C 20.5 °C 20.2 °C 19.4 °C 0 cm 6 min 253.2 W/m²
13:18 28.8 °C 11.8 °C 35 % 7 km/h (17 km/h) 0 mm0 mm 20.7 °C 20.5 °C 20.2 °C 19.4 °C 0 cm 6 min 254.6 W/m²
13:12 28.6 °C 11.6 °C 35 % 8 km/h (17 km/h) 0 mm0 mm 20.6 °C 20.5 °C 20.2 °C 19.4 °C 0 cm 6 min 253.9 W/m²
13:06 28.6 °C 12.5 °C 37 % 7 km/h (14 km/h) 0 mm0 mm 20.6 °C 20.5 °C 20.2 °C 19.4 °C 0 cm 6 min 253.1 W/m²
13:00 27.8 °C 12.2 °C 38 % 8 km/h (15 km/h) 0 mm0 mm 20.5 °C 20.5 °C 20.2 °C 19.4 °C 0 cm 6 min 252.3 W/m²
12:54 27 °C 11.9 °C 39 % 10 km/h (16 km/h) 0 mm0 mm 20.5 °C 20.5 °C 20.2 °C 19.4 °C 0 cm 6 min 251.1 W/m²
12:48 26.7 °C 12 °C 40 % 10 km/h (16 km/h) 0 mm0 mm 20.4 °C 20.5 °C 20.2 °C 19.4 °C 0 cm 6 min 249.9 W/m²
12:42 27 °C 12.2 °C 40 % 11 km/h (21 km/h) 0 mm0 mm 20.3 °C 20.5 °C 20.2 °C 19.4 °C 0 cm 6 min 243.6 W/m²
12:36 27.1 °C 11.9 °C 39 % 10 km/h (21 km/h) 0 mm0 mm 20.3 °C 20.5 °C 20.2 °C 19.4 °C 0 cm 6 min 245.4 W/m²
12:30 27.5 °C 12.7 °C 40 % 8 km/h (13 km/h) 0 mm0 mm 20.2 °C 20.5 °C 20.2 °C 19.4 °C 0 cm 6 min 245 W/m²
12:24 28.2 °C 12.5 °C 38 % 6 km/h (12 km/h) 0 mm0 mm 20.2 °C 20.5 °C 20.2 °C 19.4 °C 0 cm 6 min 243.1 W/m²
12:18 28.3 °C 13.4 °C 40 % 5 km/h (12 km/h) 0 mm0 mm 20.2 °C 20.5 °C 20.2 °C 19.4 °C 0 cm 6 min 241.4 W/m²
12:12 27.7 °C 12.5 °C 39 % 5 km/h (11 km/h) 0 mm0 mm 20.1 °C 20.5 °C 20.2 °C 19.4 °C 0 cm 6 min 239.2 W/m²
12:06 27.4 °C 12.6 °C 40 % 5 km/h (10 km/h) 0 mm0 mm 20 °C 20.6 °C 20.2 °C 19.4 °C 0 cm 6 min 236.5 W/m²
12:00 27.1 °C 13.1 °C 42 % 5 km/h (10 km/h) 0 mm0 mm 20 °C 20.6 °C 20.2 °C 19.4 °C 0 cm 6 min 233.3 W/m²
11:54 26.7 °C 13.1 °C 43 % 7 km/h (12 km/h) 0 mm0 mm 20 °C 20.6 °C 20.2 °C 19.4 °C 0 cm 6 min 230.2 W/m²
11:48 26.6 °C 12.6 °C 42 % 6 km/h (12 km/h) 0 mm0 mm 19.9 °C 20.6 °C 20.2 °C 19.4 °C 0 cm 6 min 228.6 W/m²
11:42 26.6 °C 13 °C 43 % 5 km/h (10 km/h) 0 mm0 mm 19.9 °C 20.6 °C 20.2 °C 19.4 °C 0 cm 6 min 223.3 W/m²
11:36 26.5 °C 12.5 °C 42 % 4 km/h (8 km/h) 0 mm0 mm 19.9 °C 20.6 °C 20.2 °C 19.4 °C 0 cm 6 min 218.1 W/m²
11:30 26.4 °C 12.5 °C 42 % 4 km/h (9 km/h) 0 mm0 mm 19.9 °C 20.6 °C 20.2 °C 19.4 °C 0 cm 6 min 212.8 W/m²
11:24 26.1 °C 13.2 °C 45 % 4 km/h (10 km/h) 0 mm0 mm 19.9 °C 20.6 °C 20.2 °C 19.4 °C 0 cm 6 min 208.4 W/m²
11:18 25.8 °C 11.9 °C 42 % 5 km/h (10 km/h) 0 mm0 mm 19.8 °C 20.6 °C 20.2 °C 19.4 °C 0 cm 6 min 205.3 W/m²
11:12 25.6 °C 12.4 °C 44 % 6 km/h (14 km/h) 0 mm0 mm 19.8 °C 20.6 °C 20.2 °C 19.4 °C 0 cm 6 min 198.3 W/m²
11:06 25 °C 11.9 °C 44 % 6 km/h (14 km/h) 0 mm0 mm 19.8 °C 20.7 °C 20.2 °C 19.4 °C 0 cm 6 min 195.6 W/m²
11:00 25.2 °C 13.4 °C 48 % 6 km/h (14 km/h) 0 mm0 mm 19.8 °C 20.7 °C 20.2 °C 19.4 °C 0 cm 6 min 197.7 W/m²
10:54 24.7 °C 12.3 °C 46 % 6 km/h (11 km/h) 0 mm0 mm 19.8 °C 20.7 °C 20.2 °C 19.4 °C 0 cm 6 min 194.2 W/m²
10:48 24.3 °C 12.3 °C 47 % 8 km/h (14 km/h) 0 mm0 mm 19.8 °C 20.7 °C 20.2 °C 19.4 °C 0 cm 6 min 190.1 W/m²
10:42 24.4 °C 13 °C 49 % 8 km/h (15 km/h) 0 mm0 mm 19.8 °C 20.7 °C 20.2 °C 19.4 °C 0 cm 6 min 186.3 W/m²
10:36 23.7 °C 13.3 °C 52 % 10 km/h (16 km/h) 0 mm0 mm 19.8 °C 20.7 °C 20.2 °C 19.4 °C 0 cm 6 min 180.9 W/m²
10:30 23.3 °C 12.9 °C 52 % 10 km/h (16 km/h) 0 mm0 mm 19.8 °C 20.7 °C 20.2 °C 19.4 °C 0 cm 6 min 176.2 W/m²
10:24 22.9 °C 11.9 °C 50 % 10 km/h (17 km/h) 0 mm0 mm 19.8 °C 20.8 °C 20.2 °C 19.4 °C 0 cm 6 min 172.4 W/m²
10:18 22.6 °C 13.6 °C 57 % 10 km/h (18 km/h) 0 mm0 mm 19.9 °C 20.8 °C 20.2 °C 19.4 °C 0 cm 6 min 166.2 W/m²
10:12 22.4 °C 12.3 °C 53 % 9 km/h (17 km/h) 0 mm0 mm 19.9 °C 20.8 °C 20.2 °C 19.4 °C 0 cm 6 min 161.1 W/m²
10:06 22 °C 12.8 °C 56 % 10 km/h (13 km/h) 0 mm0 mm 19.9 °C 20.8 °C 20.2 °C 19.4 °C 0 cm 6 min 149.2 W/m²
10:00 21.5 °C 12.6 °C 57 % 10 km/h (14 km/h) 0 mm0 mm 19.9 °C 20.8 °C 20.2 °C 19.4 °C 0 cm 6 min 149.8 W/m²
09:54 21.3 °C 13 °C 59 % 10 km/h (15 km/h) 0 mm0 mm 19.9 °C 20.8 °C 20.2 °C 19.4 °C 0 cm 6 min 140.4 W/m²
09:48 20.9 °C 12.6 °C 59 % 10 km/h (16 km/h) 0 mm0 mm 19.9 °C 20.9 °C 20.2 °C 19.4 °C 0 cm 6 min 130.6 W/m²
09:42 20.7 °C 12.7 °C 60 % 9 km/h (17 km/h) 0 mm0 mm 19.9 °C 20.9 °C 20.2 °C 19.4 °C 0 cm 6 min 120 W/m²
09:36 20.4 °C 13.6 °C 65 % 9 km/h (15 km/h) 0 mm0 mm 20 °C 20.9 °C 20.2 °C 19.4 °C 0 cm 6 min 124.5 W/m²
09:30 19.8 °C 13.3 °C 66 % 9 km/h (15 km/h) 0 mm0 mm 20 °C 20.9 °C 20.2 °C 19.4 °C 0 cm 6 min 122.4 W/m²
09:24 18.8 °C 13 °C 69 % 8 km/h (12 km/h) 0 mm0 mm 20 °C 20.9 °C 20.2 °C 19.4 °C 0 cm 6 min 113.6 W/m²
09:18 18.2 °C 13.3 °C 73 % 8 km/h (12 km/h) 0 mm0 mm 20 °C 20.9 °C 20.2 °C 19.4 °C 0 cm 6 min 105.2 W/m²
09:12 17 °C 12.3 °C 74 % 9 km/h (14 km/h) 0 mm0 mm 20.1 °C 21 °C 20.2 °C 19.4 °C 0 cm 4 min 88.2 W/m²
09:06 16.5 °C 11.8 °C 74 % 11 km/h (15 km/h) 0 mm0 mm 20.1 °C 21 °C 20.2 °C 19.4 °C 0 cm 0 min 40 W/m²
09:00 16.2 °C 11.4 °C 73 % 10 km/h (15 km/h) 0 mm0 mm 20.1 °C 21 °C 20.2 °C 19.4 °C 0 cm 0 min 28.8 W/m²
08:54 16 °C 11.8 °C 76 % 10 km/h (17 km/h) 0 mm0 mm 20.1 °C 21 °C 20.2 °C 19.4 °C 0 cm 0 min 34.5 W/m²
08:48 15.8 °C 11.6 °C 76 % 11 km/h (17 km/h) 0 mm0 mm 20.2 °C 21 °C 20.2 °C 19.4 °C 0 cm 0 min 32.5 W/m²
08:42 15.5 °C 11.7 °C 78 % 10 km/h (16 km/h) 0 mm0 mm 20.2 °C 21 °C 20.2 °C 19.4 °C 0 cm 0 min 31.5 W/m²
08:36 15.2 °C 11.4 °C 78 % 8 km/h (13 km/h) 0 mm0 mm 20.2 °C 21.1 °C 20.2 °C 19.4 °C 0 cm 0 min 33.7 W/m²
08:30 15 °C 11.4 °C 79 % 9 km/h (13 km/h) 0 mm0 mm 20.2 °C 21.1 °C 20.2 °C 19.4 °C 0 cm 0 min 28.4 W/m²
08:24 15 °C 11.2 °C 78 % 8 km/h (16 km/h) 0 mm0 mm 20.3 °C 21.1 °C 20.2 °C 19.4 °C 0 cm 0 min 24 W/m²
08:18 15.2 °C 11.4 °C 78 % 9 km/h (16 km/h) 0 mm0 mm 20.3 °C 21.1 °C 20.2 °C 19.4 °C 0 cm 0 min 19.3 W/m²
08:12 15.3 °C 11.1 °C 76 % 9 km/h (14 km/h) 0 mm0 mm 20.3 °C 21.1 °C 20.2 °C 19.4 °C 0 cm 0 min 15.2 W/m²
08:06 15.6 °C 11.2 °C 75 % 11 km/h (17 km/h) 0 mm0 mm 20.4 °C 21.2 °C 20.2 °C 19.4 °C 0 cm 0 min 12.5 W/m²
08:00 15.9 °C 11.1 °C 73 % 13 km/h (19 km/h) 0 mm0 mm 20.4 °C 21.2 °C 20.2 °C 19.4 °C 0 cm 0 min 10.7 W/m²
07:54 15.2 °C 11.2 °C 77 % 12 km/h (19 km/h) 0 mm0 mm 20.4 °C 21.2 °C 20.2 °C 19.4 °C 0 cm 0 min 9.3 W/m²
07:48 15.1 °C 11.3 °C 78 % 10 km/h (14 km/h) 0 mm0 mm 20.4 °C 21.2 °C 20.2 °C 19.4 °C 0 cm 0 min 8.9 W/m²
07:42 14.8 °C 11.2 °C 79 % 9 km/h (14 km/h) 0 mm0 mm 20.5 °C 21.2 °C 20.2 °C 19.4 °C 0 cm 0 min 8.7 W/m²
07:36 14.8 °C 11 °C 78 % 9 km/h (14 km/h) 0 mm0 mm 20.5 °C 21.2 °C 20.2 °C 19.4 °C 0 cm 0 min 8 W/m²
07:30 15 °C 11.2 °C 78 % 9 km/h (14 km/h) 0 mm0 mm 20.5 °C 21.3 °C 20.2 °C 19.4 °C 0 cm 0 min 6.9 W/m²
07:24 14.8 °C 11.2 °C 79 % 8 km/h (14 km/h) 0 mm0 mm 20.6 °C 21.3 °C 20.2 °C 19.4 °C 0 cm 0 min 5.3 W/m²
07:18 14.6 °C 11 °C 79 % 6 km/h (11 km/h) 0 mm0 mm 20.6 °C 21.3 °C 20.2 °C 19.4 °C 0 cm 0 min 0.8 W/m²
07:12 14.6 °C 11 °C 79 % 6 km/h (11 km/h) 0 mm0 mm 20.6 °C 21.3 °C 20.2 °C 19.4 °C 0 cm 0 min 0 W/m²
07:06 14.8 °C 11 °C 78 % 9 km/h (16 km/h) 0 mm0 mm 20.6 °C 21.3 °C 20.2 °C 19.4 °C 0 cm 0 min 0 W/m²
07:00 14.7 °C 11.1 °C 79 % 11 km/h (16 km/h) 0 mm0 mm 20.7 °C 21.3 °C 20.2 °C 19.4 °C 0 cm 0 min 0 W/m²
06:54 14.7 °C 10.9 °C 78 % 10 km/h (16 km/h) 0 mm0 mm 20.7 °C 21.4 °C 20.2 °C 19.4 °C 0 cm 0 min 0 W/m²
06:48 15.2 °C 11 °C 76 % 11 km/h (17 km/h) 0 mm0 mm 20.7 °C 21.4 °C 20.2 °C 19.4 °C 0 cm 0 min 0 W/m²
06:42 15.3 °C 11.1 °C 76 % 11 km/h (15 km/h) 0 mm0 mm 20.8 °C 21.4 °C 20.2 °C 19.4 °C 0 cm 0 min 0 W/m²
06:36 15.4 °C 11.2 °C 76 % 10 km/h (15 km/h) 0 mm0 mm 20.8 °C 21.4 °C 20.2 °C 19.4 °C 0 cm 0 min 0 W/m²
06:30 15.2 °C 11 °C 76 % 9 km/h (12 km/h) 0 mm0 mm 20.8 °C 21.4 °C 20.2 °C 19.4 °C 0 cm 0 min 0 W/m²
06:24 15.5 °C 11.1 °C 75 % 8 km/h (11 km/h) 0 mm0 mm 20.8 °C 21.4 °C 20.2 °C 19.4 °C 0 cm 0 min 0 W/m²
06:18 15.5 °C 11.1 °C 75 % 9 km/h (13 km/h) 0 mm0 mm 20.9 °C 21.5 °C 20.2 °C 19.4 °C 0 cm 0 min 0 W/m²
06:12 15.6 °C 11.2 °C 75 % 8 km/h (13 km/h) 0 mm0 mm 20.9 °C 21.5 °C 20.2 °C 19.4 °C 0 cm 0 min 0 W/m²
06:06 15.5 °C 11.1 °C 75 % 7 km/h (10 km/h) 0 mm0 mm 20.9 °C 21.5 °C 20.2 °C 19.4 °C 0 cm 0 min 0 W/m²
06:00 15.4 °C 11.2 °C 76 % 6 km/h (10 km/h) 0 mm0 mm 20.9 °C 21.5 °C 20.2 °C 19.4 °C 0 cm 0 min 0 W/m²
05:54 15.3 °C 11.1 °C 76 % 5 km/h (10 km/h) 0 mm0 mm 21 °C 21.5 °C 20.2 °C 19.4 °C 0 cm 0 min 0 W/m²
05:48 15.7 °C 11.1 °C 74 % 6 km/h (10 km/h) 0 mm0 mm 21 °C 21.5 °C 20.2 °C 19.4 °C 0 cm 0 min 0 W/m²
05:42 16 °C 11.2 °C 73 % 8 km/h (12 km/h) 0 mm0 mm 21 °C 21.5 °C 20.2 °C 19.4 °C 0 cm 0 min 0 W/m²
05:36 16.1 °C 11 °C 72 % 9 km/h (14 km/h) 0 mm0 mm 21.1 °C 21.6 °C 20.2 °C 19.4 °C 0 cm 0 min 0 W/m²
05:30 16.3 °C 11 °C 71 % 10 km/h (14 km/h) 0 mm0 mm 21.1 °C 21.6 °C 20.2 °C 19.4 °C 0 cm 0 min 0 W/m²
05:24 16.9 °C 11.2 °C 69 % 12 km/h (17 km/h) 0 mm0 mm 21.1 °C 21.6 °C 20.2 °C 19.4 °C 0 cm 0 min 0 W/m²
05:18 16.7 °C 11.2 °C 70 % 11 km/h (17 km/h) 0 mm0 mm 21.2 °C 21.6 °C 20.2 °C 19.4 °C 0 cm 0 min 0 W/m²
05:12 16.1 °C 11.3 °C 73 % 8 km/h (12 km/h) 0 mm0 mm 21.2 °C 21.6 °C 20.2 °C 19.4 °C 0 cm 0 min 0 W/m²
05:06 16.1 °C 11.3 °C 73 % 8 km/h (11 km/h) 0 mm0 mm 21.2 °C 21.6 °C 20.2 °C 19.4 °C 0 cm 0 min 0 W/m²
05:00 16.4 °C 11.3 °C 72 % 8 km/h (12 km/h) 0 mm0 mm 21.2 °C 21.6 °C 20.2 °C 19.4 °C 0 cm 0 min 0 W/m²
04:54 16.5 °C 11.2 °C 71 % 8 km/h (12 km/h) 0 mm0 mm 21.3 °C 21.7 °C 20.2 °C 19.4 °C 0 cm 0 min 0 W/m²
04:48 16.4 °C 11.3 °C 72 % 9 km/h (12 km/h) 0 mm0 mm 21.3 °C 21.7 °C 20.1 °C 19.4 °C 0 cm 0 min 0 W/m²
04:42 16.6 °C 11.3 °C 71 % 9 km/h (12 km/h) 0 mm0 mm 21.3 °C 21.7 °C 20.1 °C 19.4 °C 0 cm 0 min 0 W/m²
04:36 16.4 °C 11.3 °C 72 % 9 km/h (14 km/h) 0 mm0 mm 21.4 °C 21.7 °C 20.1 °C 19.4 °C 0 cm 0 min 0 W/m²
04:30 16.4 °C 11.3 °C 72 % 10 km/h (15 km/h) 0 mm0 mm 21.4 °C 21.7 °C 20.1 °C 19.4 °C 0 cm 0 min 0 W/m²
04:24 17 °C 11.5 °C 70 % 13 km/h (19 km/h) 0 mm0 mm 21.4 °C 21.7 °C 20.1 °C 19.4 °C 0 cm 0 min 0 W/m²
04:18 17.1 °C 11.4 °C 69 % 13 km/h (19 km/h) 0 mm0 mm 21.5 °C 21.7 °C 20.1 °C 19.4 °C 0 cm 0 min 0 W/m²
04:12 16.2 °C 11.6 °C 74 % 12 km/h (17 km/h) 0 mm0 mm 21.5 °C 21.8 °C 20.1 °C 19.4 °C 0 cm 0 min 0 W/m²
04:06 16.3 °C 11.4 °C 73 % 11 km/h (17 km/h) 0 mm0 mm 21.5 °C 21.8 °C 20.1 °C 19.4 °C 0 cm 0 min 0 W/m²
04:00 16.7 °C 11.4 °C 71 % 11 km/h (17 km/h) 0 mm0 mm 21.6 °C 21.8 °C 20.1 °C 19.4 °C 0 cm 0 min 0 W/m²
03:54 17.3 °C 11.6 °C 69 % 13 km/h (17 km/h) 0 mm0 mm 21.6 °C 21.8 °C 20.1 °C 19.4 °C 0 cm 0 min 0 W/m²
03:48 17.1 °C 11.6 °C 70 % 13 km/h (18 km/h) 0 mm0 mm 21.6 °C 21.8 °C 20.1 °C 19.4 °C 0 cm 0 min 0 W/m²
03:42 16.9 °C 11.6 °C 71 % 11 km/h (18 km/h) 0 mm0 mm 21.6 °C 21.8 °C 20.1 °C 19.4 °C 0 cm 0 min 0 W/m²
03:36 17.1 °C 11.8 °C 71 % 9 km/h (14 km/h) 0 mm0 mm 21.7 °C 21.9 °C 20.1 °C 19.4 °C 0 cm 0 min 0 W/m²
03:30 17 °C 11.7 °C 71 % 8 km/h (11 km/h) 0 mm0 mm 21.7 °C 21.9 °C 20.1 °C 19.4 °C 0 cm 0 min 0 W/m²
03:24 17 °C 11.7 °C 71 % 8 km/h (13 km/h) 0 mm0 mm 21.7 °C 21.9 °C 20.1 °C 19.4 °C 0 cm 0 min 0 W/m²
03:18 17 °C 11.9 °C 72 % 10 km/h (15 km/h) 0 mm0 mm 21.8 °C 21.9 °C 20.1 °C 19.4 °C 0 cm 0 min 0 W/m²
03:12 17.2 °C 11.9 °C 71 % 12 km/h (15 km/h) 0 mm0 mm 21.8 °C 21.9 °C 20.1 °C 19.4 °C 0 cm 0 min 0 W/m²
03:06 17.3 °C 11.8 °C 70 % 12 km/h (17 km/h) 0 mm0 mm 21.8 °C 21.9 °C 20.1 °C 19.4 °C 0 cm 0 min 0 W/m²
03:00 17.3 °C 11.8 °C 70 % 12 km/h (17 km/h) 0 mm0 mm 21.9 °C 21.9 °C 20.1 °C 19.4 °C 0 cm 0 min 0 W/m²
02:54 17.2 °C 11.9 °C 71 % 11 km/h (16 km/h) 0 mm0 mm 21.9 °C 21.9 °C 20.1 °C 19.4 °C 0 cm 0 min 0 W/m²
02:48 17.2 °C 11.9 °C 71 % 12 km/h (18 km/h) 0 mm0 mm 21.9 °C 21.9 °C 20.1 °C 19.4 °C 0 cm 0 min 0 W/m²
02:42 17.2 °C 11.9 °C 71 % 12 km/h (18 km/h) 0 mm0 mm 22 °C 22 °C 20 °C 19.4 °C 0 cm 0 min 0 W/m²
02:36 17.4 °C 11.9 °C 70 % 10 km/h (14 km/h) 0 mm0 mm 22 °C 22 °C 20 °C 19.4 °C 0 cm 0 min 0 W/m²
02:30 17.2 °C 11.9 °C 71 % 9 km/h (13 km/h) 0 mm0 mm 22 °C 22 °C 20 °C 19.4 °C 0 cm 0 min 0 W/m²
02:24 17.6 °C 12.1 °C 70 % 10 km/h (14 km/h) 0 mm0 mm 22.1 °C 22 °C 20 °C 19.4 °C 0 cm 0 min 0 W/m²
02:18 18 °C 12 °C 68 % 10 km/h (14 km/h) 0 mm0 mm 22.1 °C 22 °C 20 °C 19.4 °C 0 cm 0 min 0 W/m²
02:12 17.9 °C 12.1 °C 69 % 10 km/h (14 km/h) 0 mm0 mm 22.1 °C 22 °C 20 °C 19.4 °C 0 cm 0 min 0 W/m²
02:06 18.1 °C 12.1 °C 68 % 8 km/h (13 km/h) 0 mm0 mm 22.2 °C 22 °C 20 °C 19.4 °C 0 cm 0 min 0 W/m²
02:00 17.7 °C 11.9 °C 69 % 5 km/h (9 km/h) 0 mm0 mm 22.2 °C 22 °C 20 °C 19.4 °C 0 cm 0 min 0 W/m²
01:54 18.1 °C 12.1 °C 68 % 5 km/h (8 km/h) 0 mm0 mm 22.2 °C 22 °C 20 °C 19.4 °C 0 cm 0 min 0 W/m²
01:48 18.4 °C 12.2 °C 67 % 7 km/h (11 km/h) 0 mm0 mm 22.3 °C 22 °C 20 °C 19.4 °C 0 cm 0 min 0 W/m²
01:42 18.3 °C 12.1 °C 67 % 6 km/h (11 km/h) 0 mm0 mm 22.3 °C 22.1 °C 20 °C 19.4 °C 0 cm 0 min 0 W/m²
01:36 18.2 °C 12 °C 67 % 6 km/h (8 km/h) 0 mm0 mm 22.3 °C 22.1 °C 20 °C 19.4 °C 0 cm 0 min 0 W/m²
01:30 18.3 °C 12.1 °C 67 % 5 km/h (8 km/h) 0 mm0 mm 22.3 °C 22.1 °C 20 °C 19.4 °C 0 cm 0 min 0 W/m²
01:24 18.3 °C 12.1 °C 67 % 3 km/h (6 km/h) 0 mm0 mm 22.4 °C 22.1 °C 20 °C 19.4 °C 0 cm 0 min 0 W/m²
01:18 18.5 °C 12 °C 66 % 3 km/h (5 km/h) 0 mm0 mm 22.4 °C 22.1 °C 20 °C 19.4 °C 0 cm 0 min 0 W/m²
01:12 18.7 °C 12.2 °C 66 % 4 km/h (6 km/h) 0 mm0 mm 22.4 °C 22.1 °C 20 °C 19.4 °C 0 cm 0 min 0 W/m²
01:06 18.6 °C 12.1 °C 66 % 4 km/h (6 km/h) 0 mm0 mm 22.5 °C 22.1 °C 20 °C 19.4 °C 0 cm 0 min 0 W/m²
01:00 18.8 °C 12.3 °C 66 % 3 km/h (6 km/h) 0 mm0 mm 22.5 °C 22.1 °C 20 °C 19.4 °C 0 cm 0 min 0 W/m²
00:54 19.1 °C 12.1 °C 64 % 2 km/h (5 km/h) 0 mm0 mm 22.5 °C 22.1 °C 20 °C 19.4 °C 0 cm 0 min 0 W/m²
00:48 19.1 °C 11.9 °C 63 % 2 km/h (5 km/h) 0 mm0 mm 22.6 °C 22.1 °C 20 °C 19.4 °C 0 cm 0 min 0 W/m²
00:42 19.3 °C 12.3 °C 64 % 2 km/h (6 km/h) 0 mm0 mm 22.6 °C 22.1 °C 20 °C 19.4 °C 0 cm 0 min 0 W/m²
00:36 19.4 °C 12.2 °C 63 % 3 km/h (6 km/h) 0 mm0 mm 22.6 °C 22.1 °C 20 °C 19.4 °C 0 cm 0 min 0 W/m²
00:30 19.6 °C 12.1 °C 62 % 2 km/h (5 km/h) 0 mm0 mm 22.7 °C 22.1 °C 20 °C 19.4 °C 0 cm 0 min 0 W/m²
00:24 19.9 °C 12.2 °C 61 % 0 km/h (5 km/h) 0 mm0 mm 22.7 °C 22.2 °C 20 °C 19.4 °C 0 cm 0 min 0 W/m²
00:18 19.8 °C 12.3 °C 62 % 0 km/h (2 km/h) 0 mm0 mm 22.7 °C 22.2 °C 20 °C 19.4 °C 0 cm 0 min 0 W/m²
00:12 19.8 °C 12.3 °C 62 % 0 km/h (3 km/h) 0 mm0 mm 22.8 °C 22.2 °C 20 °C 19.4 °C 0 cm 0 min 0 W/m²
00:06 20 °C 12.2 °C 61 % 0 km/h (3 km/h) 0 mm0 mm 22.8 °C 22.2 °C 19.9 °C 19.4 °C 0 cm 0 min 0 W/m²
00:00 20.1 °C 12.3 °C 61 % 0 km/h (4 km/h) 0 mm0 mm 22.8 °C 22.2 °C 19.9 °C 19.4 °C 0 cm 0 min 0 W/m²

Données via Météo-France

Relevés météo à Embrun

Cette page rassemble les observations de la station de Embrun : température, humidité, vent, précipitations et pression atmosphérique. Les graphiques facilitent le suivi de la journée, tandis que le tableau donne accès aux mesures horaires et infra-horaires disponibles.

Pour replacer ces mesures dans leur contexte, consultez la climatologie de Embrun ainsi que ses normales et records. Retrouvez aussi la carte des observations météo en temps réel.